createdAt,value
2017-01-28T00:00:16.953Z,1017.69
2017-01-28T00:01:16.967Z,1017.69
2017-01-28T00:02:16.986Z,1017.69
2017-01-28T00:03:16.990Z,1017.67
2017-01-28T00:04:17.002Z,1017.69
2017-01-28T00:05:17.020Z,1017.72
2017-01-28T00:06:17.026Z,1017.71
2017-01-28T00:07:17.038Z,1017.69
2017-01-28T00:08:17.050Z,1017.64
2017-01-28T00:09:17.063Z,1017.64
2017-01-28T00:10:17.075Z,1017.65
2017-01-28T00:11:17.086Z,1017.64
2017-01-28T00:12:17.099Z,1017.61
2017-01-28T00:13:17.111Z,1017.61
2017-01-28T00:15:17.135Z,1017.57
2017-01-28T00:16:17.147Z,1017.57
2017-01-28T00:17:17.159Z,1017.55
2017-01-28T00:18:17.171Z,1017.54
2017-01-28T00:19:17.209Z,1017.54
2017-01-28T00:20:17.193Z,1017.56
2017-01-28T00:21:17.236Z,1017.54
2017-01-28T00:22:17.217Z,1017.51
2017-01-28T00:23:17.231Z,1017.52
2017-01-28T00:24:17.241Z,1017.6
2017-01-28T00:25:17.253Z,1017.59
2017-01-28T00:26:17.265Z,1017.6
2017-01-28T00:27:17.281Z,1017.56
2017-01-28T00:28:17.292Z,1017.59
2017-01-28T00:30:17.314Z,1017.6
2017-01-28T00:31:17.325Z,1017.63
2017-01-28T00:32:17.337Z,1017.65
2017-01-28T00:33:17.349Z,1017.67
2017-01-28T00:34:17.367Z,1017.71
2017-01-28T00:35:17.373Z,1017.68
2017-01-28T00:36:17.384Z,1017.67
2017-01-28T00:37:17.396Z,1017.68
2017-01-28T00:38:17.410Z,1017.68
2017-01-28T00:39:17.421Z,1017.64
2017-01-28T00:40:17.432Z,1017.61
2017-01-28T00:41:17.444Z,1017.6
2017-01-28T00:42:17.455Z,1017.59
2017-01-28T00:43:17.467Z,1017.61
2017-01-28T00:44:17.479Z,1017.56
2017-01-28T00:45:17.492Z,1017.57
2017-01-28T00:46:17.501Z,1017.55
2017-01-28T00:47:17.515Z,1017.52
2017-01-28T00:48:17.526Z,1017.5
2017-01-28T00:49:17.538Z,1017.45
2017-01-28T00:50:17.549Z,1017.42
2017-01-28T00:51:17.561Z,1017.46
2017-01-28T00:52:17.576Z,1017.44
2017-01-28T00:53:17.585Z,1017.44
2017-01-28T00:54:17.600Z,1017.46
2017-01-28T00:55:17.609Z,1017.45
2017-01-28T00:56:17.622Z,1017.41
2017-01-28T00:57:17.632Z,1017.37
2017-01-28T00:58:17.645Z,1017.38
2017-01-28T00:59:17.655Z,1017.38
2017-01-28T01:00:17.666Z,1017.41
2017-01-28T01:02:17.691Z,1017.4
2017-01-28T01:03:17.702Z,1017.42
2017-01-28T01:04:17.714Z,1017.35
2017-01-28T01:05:17.726Z,1017.36
2017-01-28T01:06:17.737Z,1017.36
2017-01-28T01:07:17.749Z,1017.35
2017-01-28T01:08:17.760Z,1017.38
2017-01-28T01:09:17.772Z,1017.34
2017-01-28T01:10:17.784Z,1017.36
2017-01-28T01:11:17.795Z,1017.35
2017-01-28T01:12:17.806Z,1017.33
2017-01-28T01:13:17.819Z,1017.31
2017-01-28T01:14:17.832Z,1017.29
2017-01-28T01:15:17.842Z,1017.29
2017-01-28T01:16:17.854Z,1017.29
2017-01-28T01:18:17.877Z,1017.31
2017-01-28T01:19:17.888Z,1017.31
2017-01-28T01:20:17.900Z,1017.31
2017-01-28T01:21:17.914Z,1017.33
2017-01-28T01:22:17.923Z,1017.35
2017-01-28T01:23:17.935Z,1017.35
2017-01-28T01:24:17.946Z,1017.38
2017-01-28T01:25:17.959Z,1017.34
2017-01-28T01:26:17.970Z,1017.28
2017-01-28T01:27:17.982Z,1017.34
2017-01-28T01:28:17.993Z,1017.35
2017-01-28T01:29:18.006Z,1017.35
2017-01-28T01:30:18.016Z,1017.36
2017-01-28T01:31:18.028Z,1017.39
2017-01-28T01:32:18.040Z,1017.41
2017-01-28T01:34:18.065Z,1017.42
2017-01-28T01:35:18.073Z,1017.37
2017-01-28T01:36:18.085Z,1017.4
2017-01-28T01:37:18.097Z,1017.35
2017-01-28T01:38:18.108Z,1017.36
2017-01-28T01:39:18.121Z,1017.34
2017-01-28T01:40:18.132Z,1017.32
2017-01-28T01:41:18.142Z,1017.36
2017-01-28T01:42:18.155Z,1017.3
2017-01-28T01:43:18.166Z,1017.31
2017-01-28T01:44:18.177Z,1017.31
2017-01-28T01:45:18.188Z,1017.3
2017-01-28T01:46:18.201Z,1017.29
2017-01-28T01:47:18.212Z,1017.24
2017-01-28T01:48:18.223Z,1017.27
2017-01-28T01:50:18.246Z,1017.25
2017-01-28T01:51:18.258Z,1017.27
2017-01-28T01:52:18.270Z,1017.26
2017-01-28T01:53:18.284Z,1017.23
2017-01-28T01:54:18.294Z,1017.24
2017-01-28T01:55:18.304Z,1017.18
2017-01-28T01:56:18.315Z,1017.17
2017-01-28T01:57:18.328Z,1017.15
2017-01-28T01:58:18.338Z,1017.15
2017-01-28T01:59:18.349Z,1017.12
2017-01-28T02:00:18.361Z,1017.1
2017-01-28T02:01:18.373Z,1017.12
2017-01-28T02:02:18.385Z,1017.12
2017-01-28T02:03:18.396Z,1017.09
2017-01-28T02:05:18.420Z,1017.09
2017-01-28T02:06:18.432Z,1017.07
2017-01-28T02:07:18.443Z,1017.06
2017-01-28T02:08:18.454Z,1017.08
2017-01-28T02:09:18.470Z,1017.09
2017-01-28T02:10:18.477Z,1017.07
2017-01-28T02:11:18.488Z,1017.03
2017-01-28T02:12:18.502Z,1017.06
2017-01-28T02:13:18.519Z,1017.11
2017-01-28T02:14:18.524Z,1017.04
2017-01-28T02:15:18.536Z,1017.08
2017-01-28T02:16:18.547Z,1017.05
2017-01-28T02:17:18.559Z,1017.05
2017-01-28T02:18:18.574Z,1016.97
2017-01-28T02:19:18.587Z,1017
2017-01-28T02:20:18.594Z,1017.01
2017-01-28T02:21:18.605Z,1016.97
2017-01-28T02:22:18.617Z,1016.95
2017-01-28T02:23:18.629Z,1016.93
2017-01-28T02:24:18.639Z,1016.97
2017-01-28T02:25:18.651Z,1016.96
2017-01-28T02:26:18.664Z,1016.95
2017-01-28T02:27:18.676Z,1016.94
2017-01-28T02:28:18.685Z,1016.95
2017-01-28T02:29:18.696Z,1016.92
2017-01-28T02:30:18.710Z,1016.91
2017-01-28T02:31:18.722Z,1016.85
2017-01-28T02:32:18.732Z,1016.86
2017-01-28T02:33:18.742Z,1016.86
2017-01-28T02:34:18.755Z,1016.87
2017-01-28T02:35:18.767Z,1016.84
2017-01-28T02:37:18.789Z,1016.89
2017-01-28T02:38:18.801Z,1016.87
2017-01-28T02:39:18.811Z,1016.86
2017-01-28T02:40:18.823Z,1016.9
2017-01-28T02:41:18.836Z,1016.88
2017-01-28T02:42:18.847Z,1016.88
2017-01-28T02:43:18.858Z,1016.85
2017-01-28T02:44:18.870Z,1016.82
2017-01-28T02:45:18.882Z,1016.86
2017-01-28T02:46:18.892Z,1016.88
2017-01-28T02:47:18.902Z,1016.85
2017-01-28T02:48:18.915Z,1016.84
2017-01-28T02:49:18.927Z,1016.83
2017-01-28T02:50:18.937Z,1016.81
2017-01-28T02:51:18.951Z,1016.83
2017-01-28T02:53:18.973Z,1016.84
2017-01-28T02:54:18.983Z,1016.82
2017-01-28T02:55:18.996Z,1016.79
2017-01-28T02:56:19.007Z,1016.78
2017-01-28T02:57:19.017Z,1016.8
2017-01-28T02:58:19.029Z,1016.77
2017-01-28T02:59:19.053Z,1016.79
2017-01-28T03:00:19.052Z,1016.81
2017-01-28T03:01:19.063Z,1016.81
2017-01-28T03:02:19.076Z,1016.81
2017-01-28T03:03:19.087Z,1016.77
2017-01-28T03:04:19.098Z,1016.8
2017-01-28T03:05:19.109Z,1016.8
2017-01-28T03:06:19.121Z,1016.76
2017-01-28T03:07:19.132Z,1016.77
2017-01-28T03:09:19.154Z,1016.81
2017-01-28T03:10:19.165Z,1016.8
2017-01-28T03:11:19.178Z,1016.78
2017-01-28T03:12:19.188Z,1016.82
2017-01-28T03:13:19.202Z,1016.79
2017-01-28T03:14:19.211Z,1016.76
2017-01-28T03:15:19.223Z,1016.8
2017-01-28T03:16:19.233Z,1016.77
2017-01-28T03:17:19.245Z,1016.77
2017-01-28T03:18:19.257Z,1016.78
2017-01-28T03:19:19.268Z,1016.79
2017-01-28T03:20:19.278Z,1016.74
2017-01-28T03:21:19.291Z,1016.74
2017-01-28T03:22:19.302Z,1016.76
2017-01-28T03:23:19.312Z,1016.65
2017-01-28T03:25:19.337Z,1016.74
2017-01-28T03:26:19.353Z,1016.69
2017-01-28T03:27:19.358Z,1016.72
2017-01-28T03:28:19.370Z,1016.7
2017-01-28T03:29:19.381Z,1016.71
2017-01-28T03:30:19.391Z,1016.69
2017-01-28T03:31:19.402Z,1016.66
2017-01-28T03:32:19.414Z,1016.66
2017-01-28T03:33:19.426Z,1016.66
2017-01-28T03:34:19.437Z,1016.68
2017-01-28T03:35:19.448Z,1016.65
2017-01-28T03:36:19.461Z,1016.66
2017-01-28T03:37:19.471Z,1016.63
2017-01-28T03:38:19.483Z,1016.65
2017-01-28T03:40:19.505Z,1016.66
2017-01-28T03:41:19.517Z,1016.67
2017-01-28T03:42:19.527Z,1016.74
2017-01-28T03:43:19.540Z,1016.74
2017-01-28T03:44:19.551Z,1016.74
2017-01-28T03:45:19.567Z,1016.71
2017-01-28T03:46:19.573Z,1016.72
2017-01-28T03:47:19.684Z,1016.7
2017-01-28T03:48:19.594Z,1016.73
2017-01-28T03:49:19.606Z,1016.75
2017-01-28T03:50:19.618Z,1016.77
2017-01-28T03:51:19.630Z,1016.76
2017-01-28T03:52:19.640Z,1016.76
2017-01-28T03:53:19.652Z,1016.77
2017-01-28T03:54:19.662Z,1016.76
2017-01-28T03:55:19.673Z,1016.71
2017-01-28T03:56:19.685Z,1016.72
2017-01-28T03:57:19.696Z,1016.71
2017-01-28T03:58:19.708Z,1016.74
2017-01-28T03:59:19.718Z,1016.73
2017-01-28T04:00:19.729Z,1016.7
2017-01-28T04:01:19.741Z,1016.73
2017-01-28T04:02:19.752Z,1016.69
2017-01-28T04:03:19.763Z,1016.69
2017-01-28T04:04:19.774Z,1016.65
2017-01-28T04:05:19.785Z,1016.65
2017-01-28T04:06:19.797Z,1016.62
2017-01-28T04:07:19.808Z,1016.68
2017-01-28T04:08:19.820Z,1016.68
2017-01-28T04:09:19.836Z,1016.69
2017-01-28T04:10:19.841Z,1016.7
2017-01-28T04:12:19.874Z,1016.72
2017-01-28T04:13:19.875Z,1016.7
2017-01-28T04:14:19.886Z,1016.71
2017-01-28T04:15:19.897Z,1016.69
2017-01-28T04:16:19.908Z,1016.7
2017-01-28T04:17:19.919Z,1016.72
2017-01-28T04:18:19.932Z,1016.69
2017-01-28T04:19:19.942Z,1016.66
2017-01-28T04:20:19.953Z,1016.67
2017-01-28T04:21:19.964Z,1016.68
2017-01-28T04:22:19.975Z,1016.69
2017-01-28T04:23:19.986Z,1016.66
2017-01-28T04:24:19.998Z,1016.66
2017-01-28T04:25:20.008Z,1016.67
2017-01-28T04:26:20.019Z,1016.64
2017-01-28T04:28:20.041Z,1016.61
2017-01-28T04:29:20.053Z,1016.62
2017-01-28T04:30:20.065Z,1016.58
2017-01-28T04:31:20.103Z,1016.6
2017-01-28T04:32:20.086Z,1016.59
2017-01-28T04:33:20.096Z,1016.6
2017-01-28T04:34:20.112Z,1016.62
2017-01-28T04:35:20.120Z,1016.57
2017-01-28T04:36:20.129Z,1016.59
2017-01-28T04:37:20.141Z,1016.58
2017-01-28T04:38:20.152Z,1016.59
2017-01-28T04:39:20.165Z,1016.62
2017-01-28T04:40:20.175Z,1016.64
2017-01-28T04:41:20.187Z,1016.61
2017-01-28T04:42:20.197Z,1016.58
2017-01-28T04:44:20.220Z,1016.5
2017-01-28T04:45:20.231Z,1016.51
2017-01-28T04:46:20.242Z,1016.51
2017-01-28T04:47:20.252Z,1016.53
2017-01-28T04:48:20.264Z,1016.53
2017-01-28T04:49:20.275Z,1016.55
2017-01-28T04:50:20.286Z,1016.48
2017-01-28T04:51:20.296Z,1016.58
2017-01-28T04:52:20.309Z,1016.59
2017-01-28T04:53:20.320Z,1016.52
2017-01-28T04:54:20.330Z,1016.54
2017-01-28T04:55:20.341Z,1016.54
2017-01-28T04:56:20.352Z,1016.56
2017-01-28T04:57:20.392Z,1016.53
2017-01-28T04:58:20.375Z,1016.56
2017-01-28T05:00:20.397Z,1016.58
2017-01-28T05:01:20.408Z,1016.59
2017-01-28T05:02:20.419Z,1016.58
2017-01-28T05:03:20.429Z,1016.6
2017-01-28T05:04:20.442Z,1016.59
2017-01-28T05:05:20.452Z,1016.62
2017-01-28T05:06:20.463Z,1016.64
2017-01-28T05:07:20.474Z,1016.59
2017-01-28T05:08:20.486Z,1016.61
2017-01-28T05:09:20.497Z,1016.64
2017-01-28T05:10:20.507Z,1016.62
2017-01-28T05:11:20.519Z,1016.64
2017-01-28T05:12:20.531Z,1016.6
2017-01-28T05:13:20.541Z,1016.64
2017-01-28T05:15:20.564Z,1016.61
2017-01-28T05:16:20.574Z,1016.65
2017-01-28T05:17:20.585Z,1016.61
2017-01-28T05:18:20.598Z,1016.6
2017-01-28T05:19:20.608Z,1016.61
2017-01-28T05:20:20.620Z,1016.64
2017-01-28T05:21:20.630Z,1016.63
2017-01-28T05:22:20.641Z,1016.63
2017-01-28T05:23:20.681Z,1016.61
2017-01-28T05:24:20.662Z,1016.58
2017-01-28T05:25:20.875Z,1016.62
2017-01-28T05:26:20.686Z,1016.64
2017-01-28T05:27:20.695Z,1016.61
2017-01-28T05:28:20.706Z,1016.57
2017-01-28T05:29:20.717Z,1016.61
2017-01-28T05:30:20.729Z,1016.59
2017-01-28T05:31:20.739Z,1016.58
2017-01-28T05:32:20.751Z,1016.58
2017-01-28T05:33:20.762Z,1016.57
2017-01-28T05:34:20.772Z,1016.55
2017-01-28T05:35:20.783Z,1016.51
2017-01-28T05:36:20.795Z,1016.55
2017-01-28T05:37:20.806Z,1016.53
2017-01-28T05:38:20.815Z,1016.54
2017-01-28T05:39:20.828Z,1016.58
2017-01-28T05:40:20.838Z,1016.58
2017-01-28T05:41:20.850Z,1016.58
2017-01-28T05:42:20.860Z,1016.57
2017-01-28T05:43:20.871Z,1016.59
2017-01-28T05:44:20.883Z,1016.59
2017-01-28T05:45:20.893Z,1016.6
2017-01-28T05:47:20.916Z,1016.63
2017-01-28T05:48:20.927Z,1016.62
2017-01-28T05:49:20.936Z,1016.61
2017-01-28T05:50:20.947Z,1016.59
2017-01-28T05:51:20.959Z,1016.57
2017-01-28T05:52:20.970Z,1016.58
2017-01-28T05:53:20.981Z,1016.59
2017-01-28T05:54:20.991Z,1016.56
2017-01-28T05:55:21.002Z,1016.62
2017-01-28T05:56:21.012Z,1016.58
2017-01-28T05:57:21.026Z,1016.62
2017-01-28T05:58:21.034Z,1016.62
2017-01-28T05:59:21.046Z,1016.66
2017-01-28T06:00:21.056Z,1016.65
2017-01-28T06:01:21.067Z,1016.62
2017-01-28T06:03:21.089Z,1016.61
2017-01-28T06:04:21.099Z,1016.63
2017-01-28T06:05:21.111Z,1016.62
2017-01-28T06:06:21.122Z,1016.6
2017-01-28T06:07:21.133Z,1016.56
2017-01-28T06:08:21.144Z,1016.61
2017-01-28T06:09:21.155Z,1016.54
2017-01-28T06:10:21.166Z,1016.57
2017-01-28T06:11:21.177Z,1016.57
2017-01-28T06:12:21.187Z,1016.58
2017-01-28T06:13:21.198Z,1016.58
2017-01-28T06:14:21.210Z,1016.61
2017-01-28T06:15:21.221Z,1016.6
2017-01-28T06:16:21.232Z,1016.6
2017-01-28T06:17:21.243Z,1016.63
2017-01-28T06:19:21.264Z,1016.62
2017-01-28T06:20:21.274Z,1016.62
2017-01-28T06:21:21.284Z,1016.64
2017-01-28T06:22:21.295Z,1016.65
2017-01-28T06:23:21.307Z,1016.65
2017-01-28T06:24:21.368Z,1016.6
2017-01-28T06:25:21.328Z,1016.63
2017-01-28T06:26:21.367Z,1016.56
2017-01-28T06:27:21.353Z,1016.6
2017-01-28T06:28:21.361Z,1016.63
2017-01-28T06:29:21.370Z,1016.61
2017-01-28T06:30:21.382Z,1016.65
2017-01-28T06:31:21.393Z,1016.64
2017-01-28T06:32:21.405Z,1016.67
2017-01-28T06:33:21.415Z,1016.58
2017-01-28T06:35:21.437Z,1016.58
2017-01-28T06:36:21.447Z,1016.61
2017-01-28T06:37:21.458Z,1016.62
2017-01-28T06:38:21.469Z,1016.57
2017-01-28T06:39:21.480Z,1016.63
2017-01-28T06:40:21.491Z,1016.63
2017-01-28T06:41:21.500Z,1016.62
2017-01-28T06:42:21.512Z,1016.62
2017-01-28T06:43:21.526Z,1016.61
2017-01-28T06:44:21.533Z,1016.63
2017-01-28T06:45:21.544Z,1016.64
2017-01-28T06:46:21.556Z,1016.65
2017-01-28T06:47:21.566Z,1016.63
2017-01-28T06:48:21.578Z,1016.66
2017-01-28T06:50:21.599Z,1016.67
2017-01-28T06:51:21.609Z,1016.67
2017-01-28T06:52:21.620Z,1016.7
2017-01-28T06:53:21.632Z,1016.66
2017-01-28T06:54:21.643Z,1016.72
2017-01-28T06:55:21.653Z,1016.72
2017-01-28T06:56:21.663Z,1016.75
2017-01-28T06:57:21.674Z,1016.76
2017-01-28T06:58:21.685Z,1016.75
2017-01-28T06:59:21.695Z,1016.76
2017-01-28T07:00:21.706Z,1016.78
2017-01-28T07:01:21.717Z,1016.79
2017-01-28T07:02:21.728Z,1016.77
2017-01-28T07:03:21.739Z,1016.76
2017-01-28T07:04:21.756Z,1016.79
2017-01-28T07:05:21.761Z,1016.77
2017-01-28T07:06:21.770Z,1016.76
2017-01-28T07:07:21.782Z,1016.73
2017-01-28T07:08:21.792Z,1016.75
2017-01-28T07:09:21.802Z,1016.76
2017-01-28T07:10:21.812Z,1016.76
2017-01-28T07:11:21.824Z,1016.79
2017-01-28T07:12:21.837Z,1016.74
2017-01-28T07:13:21.846Z,1016.69
2017-01-28T07:14:21.856Z,1016.71
2017-01-28T07:15:21.869Z,1016.7
2017-01-28T07:16:21.879Z,1016.72
2017-01-28T07:17:21.890Z,1016.69
2017-01-28T07:18:21.900Z,1016.74
2017-01-28T07:19:21.912Z,1016.74
2017-01-28T07:20:21.921Z,1016.76
2017-01-28T07:22:21.944Z,1016.79
2017-01-28T07:23:21.954Z,1016.77
2017-01-28T07:24:21.964Z,1016.82
2017-01-28T07:25:21.975Z,1016.78
2017-01-28T07:26:21.986Z,1016.84
2017-01-28T07:27:21.997Z,1016.85
2017-01-28T07:28:22.007Z,1016.78
2017-01-28T07:29:22.019Z,1016.77
2017-01-28T07:30:22.030Z,1016.79
2017-01-28T07:31:22.040Z,1016.78
2017-01-28T07:32:22.052Z,1016.78
2017-01-28T07:33:22.063Z,1016.84
2017-01-28T07:34:22.074Z,1016.8
2017-01-28T07:35:22.084Z,1016.83
2017-01-28T07:36:22.095Z,1016.82
2017-01-28T07:38:22.118Z,1016.8
2017-01-28T07:39:22.128Z,1016.78
2017-01-28T07:40:22.139Z,1016.78
2017-01-28T07:41:22.151Z,1016.79
2017-01-28T07:42:22.160Z,1016.77
2017-01-28T07:43:22.172Z,1016.76
2017-01-28T07:44:22.185Z,1016.79
2017-01-28T07:45:22.194Z,1016.77
2017-01-28T07:46:22.210Z,1016.74
2017-01-28T07:47:22.216Z,1016.71
2017-01-28T07:48:22.228Z,1016.71
2017-01-28T07:49:22.238Z,1016.67
2017-01-28T07:50:22.551Z,1016.68
2017-01-28T07:51:22.260Z,1016.63
2017-01-28T07:52:22.273Z,1016.66
2017-01-28T07:54:22.295Z,1016.65
2017-01-28T07:55:22.305Z,1016.69
2017-01-28T07:56:22.317Z,1016.66
2017-01-28T07:57:22.328Z,1016.7
2017-01-28T07:58:22.340Z,1016.67
2017-01-28T07:59:22.351Z,1016.74
2017-01-28T08:00:22.363Z,1016.71
2017-01-28T08:01:22.372Z,1016.67
2017-01-28T08:02:22.385Z,1016.7
2017-01-28T08:03:22.423Z,1016.68
2017-01-28T08:04:22.408Z,1016.68
2017-01-28T08:05:22.419Z,1016.71
2017-01-28T08:06:22.431Z,1016.75
2017-01-28T08:07:22.443Z,1016.72
2017-01-28T08:08:22.454Z,1016.73
2017-01-28T08:10:22.477Z,1016.73
2017-01-28T08:11:22.490Z,1016.66
2017-01-28T08:12:22.501Z,1016.67
2017-01-28T08:13:22.523Z,1016.68
2017-01-28T08:14:22.523Z,1016.68
2017-01-28T08:15:22.535Z,1016.65
2017-01-28T08:16:22.547Z,1016.66
2017-01-28T08:17:22.559Z,1016.67
2017-01-28T08:18:22.571Z,1016.66
2017-01-28T08:19:22.581Z,1016.67
2017-01-28T08:20:22.595Z,1016.68
2017-01-28T08:21:22.606Z,1016.63
2017-01-28T08:22:22.621Z,1016.65
2017-01-28T08:23:22.630Z,1016.68
2017-01-28T08:25:22.655Z,1016.69
2017-01-28T08:26:22.666Z,1016.72
2017-01-28T08:27:22.678Z,1016.7
2017-01-28T08:28:22.690Z,1016.68
2017-01-28T08:29:22.701Z,1016.7
2017-01-28T08:30:22.713Z,1016.66
2017-01-28T08:31:22.725Z,1016.7
2017-01-28T08:32:22.737Z,1016.68
2017-01-28T08:33:22.749Z,1016.64
2017-01-28T08:34:22.761Z,1016.64
2017-01-28T08:35:22.773Z,1016.64
2017-01-28T08:36:22.785Z,1016.6
2017-01-28T08:37:22.797Z,1016.62
2017-01-28T08:38:22.808Z,1016.62
2017-01-28T08:39:22.821Z,1016.63
2017-01-28T08:40:22.834Z,1016.6
2017-01-28T08:41:22.845Z,1016.61
2017-01-28T08:42:22.858Z,1016.58
2017-01-28T08:43:22.870Z,1016.55
2017-01-28T08:44:22.882Z,1016.54
2017-01-28T08:45:22.894Z,1016.57
2017-01-28T08:46:22.909Z,1016.52
2017-01-28T08:47:22.918Z,1016.56
2017-01-28T08:48:22.930Z,1016.58
2017-01-28T08:49:22.943Z,1016.55
2017-01-28T08:50:22.955Z,1016.52
2017-01-28T08:51:22.970Z,1016.49
2017-01-28T08:52:22.981Z,1016.47
2017-01-28T08:53:22.993Z,1016.48
2017-01-28T08:54:23.006Z,1016.46
2017-01-28T08:55:23.021Z,1016.43
2017-01-28T08:57:23.043Z,1016.43
2017-01-28T08:58:23.055Z,1016.45
2017-01-28T08:59:23.067Z,1016.42
2017-01-28T09:00:23.080Z,1016.47
2017-01-28T09:01:23.094Z,1016.42
2017-01-28T09:02:23.105Z,1016.48
2017-01-28T09:03:23.118Z,1016.45
2017-01-28T09:04:23.132Z,1016.51
2017-01-28T09:05:23.143Z,1016.48
2017-01-28T09:06:23.155Z,1016.48
2017-01-28T09:07:23.169Z,1016.56
2017-01-28T09:08:23.185Z,1016.51
2017-01-28T09:09:23.195Z,1016.55
2017-01-28T09:10:23.207Z,1016.53
2017-01-28T09:11:23.221Z,1016.59
2017-01-28T09:13:23.247Z,1016.52
2017-01-28T09:14:23.259Z,1016.58
2017-01-28T09:15:23.272Z,1016.54
2017-01-28T09:16:23.285Z,1016.58
2017-01-28T09:17:23.297Z,1016.54
2017-01-28T09:18:23.310Z,1016.57
2017-01-28T09:19:23.324Z,1016.56
2017-01-28T09:20:23.338Z,1016.54
2017-01-28T09:21:23.350Z,1016.56
2017-01-28T09:22:23.362Z,1016.52
2017-01-28T09:23:23.376Z,1016.57
2017-01-28T09:24:23.389Z,1016.5
2017-01-28T09:25:23.400Z,1016.5
2017-01-28T09:26:23.415Z,1016.53
2017-01-28T09:27:23.428Z,1016.49
2017-01-28T09:29:23.453Z,1016.49
2017-01-28T09:30:23.467Z,1016.46
2017-01-28T09:31:23.481Z,1016.52
2017-01-28T09:32:23.495Z,1016.5
2017-01-28T09:33:23.507Z,1016.49
2017-01-28T09:34:23.520Z,1016.5
2017-01-28T09:35:23.534Z,1016.43
2017-01-28T09:36:23.546Z,1016.5
2017-01-28T09:37:23.562Z,1016.46
2017-01-28T09:38:23.573Z,1016.45
2017-01-28T09:39:23.585Z,1016.4
2017-01-28T09:40:23.599Z,1016.39
2017-01-28T09:41:23.612Z,1016.41
2017-01-28T09:42:23.626Z,1016.4
2017-01-28T09:43:23.638Z,1016.36
2017-01-28T09:45:23.665Z,1016.34
2017-01-28T09:46:23.679Z,1016.31
2017-01-28T09:47:23.692Z,1016.36
2017-01-28T09:48:23.711Z,1016.32
2017-01-28T09:49:23.719Z,1016.37
2017-01-28T09:50:23.732Z,1016.31
2017-01-28T09:51:23.745Z,1016.29
2017-01-28T09:52:23.759Z,1016.31
2017-01-28T09:53:23.773Z,1016.3
2017-01-28T09:54:23.786Z,1016.29
2017-01-28T09:55:23.800Z,1016.28
2017-01-28T09:56:23.814Z,1016.29
2017-01-28T09:57:23.827Z,1016.27
2017-01-28T09:58:23.841Z,1016.27
2017-01-28T10:00:23.868Z,1016.24
2017-01-28T10:01:23.881Z,1016.21
2017-01-28T10:02:23.895Z,1016.14
2017-01-28T10:03:23.908Z,1016.21
2017-01-28T10:04:23.922Z,1016.16
2017-01-28T10:05:23.936Z,1016.15
2017-01-28T10:06:23.948Z,1016.21
2017-01-28T10:07:23.962Z,1016.2
2017-01-28T10:08:23.975Z,1016.21
2017-01-28T10:09:23.988Z,1016.19
2017-01-28T10:10:24.003Z,1016.19
2017-01-28T10:11:24.016Z,1016.2
2017-01-28T10:12:24.030Z,1016.15
2017-01-28T10:13:24.049Z,1016.2
2017-01-28T10:14:24.057Z,1016.15
2017-01-28T10:15:24.071Z,1016.18
2017-01-28T10:16:24.084Z,1016.13
2017-01-28T10:17:24.097Z,1016.17
2017-01-28T10:18:24.112Z,1016.19
2017-01-28T10:19:24.125Z,1016.14
2017-01-28T10:20:24.139Z,1016.11
2017-01-28T10:21:24.152Z,1016.08
2017-01-28T10:22:24.169Z,1016.04
2017-01-28T10:23:24.179Z,1016.06
2017-01-28T10:24:24.193Z,1016.03
2017-01-28T10:25:24.207Z,1015.99
2017-01-28T10:26:24.221Z,1016
2017-01-28T10:27:24.236Z,1015.96
2017-01-28T10:28:24.249Z,1015.92
2017-01-28T10:29:24.262Z,1015.89
2017-01-28T10:30:24.277Z,1015.87
2017-01-28T10:32:24.304Z,1015.89
2017-01-28T10:33:24.318Z,1015.84
2017-01-28T10:34:24.330Z,1015.86
2017-01-28T10:35:24.344Z,1015.86
2017-01-28T10:36:24.359Z,1015.86
2017-01-28T10:37:24.372Z,1015.84
2017-01-28T10:38:24.385Z,1015.85
2017-01-28T10:39:24.402Z,1015.87
2017-01-28T10:40:24.413Z,1015.86
2017-01-28T10:41:24.426Z,1015.82
2017-01-28T10:42:24.439Z,1015.8
2017-01-28T10:43:24.454Z,1015.81
2017-01-28T10:44:24.467Z,1015.81
2017-01-28T10:45:24.481Z,1015.8
2017-01-28T10:46:24.495Z,1015.76
2017-01-28T10:48:24.523Z,1015.77
2017-01-28T10:49:24.536Z,1015.74
2017-01-28T10:50:24.555Z,1015.69
2017-01-28T10:51:24.563Z,1015.71
2017-01-28T10:52:24.577Z,1015.65
2017-01-28T10:53:24.591Z,1015.7
2017-01-28T10:54:24.604Z,1015.63
2017-01-28T10:55:24.618Z,1015.6
2017-01-28T10:56:24.632Z,1015.63
2017-01-28T10:57:24.647Z,1015.59
2017-01-28T10:58:24.660Z,1015.56
2017-01-28T10:59:24.675Z,1015.57
2017-01-28T11:00:24.686Z,1015.57
2017-01-28T11:01:24.702Z,1015.54
2017-01-28T11:02:24.716Z,1015.54
2017-01-28T11:04:24.746Z,1015.54
2017-01-28T11:05:24.757Z,1015.55
2017-01-28T11:06:24.771Z,1015.5
2017-01-28T11:07:24.785Z,1015.5
2017-01-28T11:08:24.799Z,1015.5
2017-01-28T11:09:24.813Z,1015.49
2017-01-28T11:10:24.827Z,1015.46
2017-01-28T11:11:24.841Z,1015.44
2017-01-28T11:12:24.853Z,1015.46
2017-01-28T11:13:24.869Z,1015.46
2017-01-28T11:14:24.882Z,1015.47
2017-01-28T11:15:24.896Z,1015.43
2017-01-28T11:16:24.911Z,1015.46
2017-01-28T11:17:24.925Z,1015.45
2017-01-28T11:18:24.937Z,1015.49
2017-01-28T11:20:24.965Z,1015.51
2017-01-28T11:21:24.981Z,1015.51
2017-01-28T11:22:24.993Z,1015.51
2017-01-28T11:23:25.007Z,1015.42
2017-01-28T11:24:25.022Z,1015.46
2017-01-28T11:25:25.037Z,1015.47
2017-01-28T11:26:25.050Z,1015.42
2017-01-28T11:27:25.064Z,1015.4
2017-01-28T11:28:25.077Z,1015.41
2017-01-28T11:29:25.091Z,1015.4
2017-01-28T11:30:25.105Z,1015.36
2017-01-28T11:31:25.120Z,1015.4
2017-01-28T11:32:25.134Z,1015.36
2017-01-28T11:33:25.149Z,1015.33
2017-01-28T11:35:25.177Z,1015.32
2017-01-28T11:36:25.190Z,1015.35
2017-01-28T11:37:25.205Z,1015.32
2017-01-28T11:38:25.219Z,1015.36
2017-01-28T11:39:25.233Z,1015.29
2017-01-28T11:40:25.246Z,1015.31
2017-01-28T11:41:25.260Z,1015.31
2017-01-28T11:42:25.311Z,1015.26
2017-01-28T11:43:25.289Z,1015.31
2017-01-28T11:44:25.324Z,1015.27
2017-01-28T11:45:25.319Z,1015.29
2017-01-28T11:46:25.359Z,1015.26
2017-01-28T11:47:25.345Z,1015.27
2017-01-28T11:48:25.360Z,1015.28
2017-01-28T11:49:25.374Z,1015.28
2017-01-28T11:50:25.389Z,1015.26
2017-01-28T11:51:25.403Z,1015.25
2017-01-28T11:52:25.417Z,1015.25
2017-01-28T11:53:25.431Z,1015.24
2017-01-28T11:54:25.445Z,1015.23
2017-01-28T11:55:25.460Z,1015.21
2017-01-28T11:56:25.474Z,1015.19
2017-01-28T11:57:25.490Z,1015.19
2017-01-28T11:58:25.506Z,1015.17
2017-01-28T11:59:25.518Z,1015.18
2017-01-28T12:00:25.532Z,1015.13
2017-01-28T12:01:25.546Z,1015.14
2017-01-28T12:02:25.559Z,1015.12
2017-01-28T12:03:25.575Z,1015.11
2017-01-28T12:04:25.589Z,1015.11
2017-01-28T12:05:25.602Z,1015.11
2017-01-28T12:07:25.632Z,1015.09
2017-01-28T12:08:25.647Z,1015.11
2017-01-28T12:09:25.660Z,1015.12
2017-01-28T12:10:25.675Z,1015.12
2017-01-28T12:11:25.689Z,1015.11
2017-01-28T12:12:25.704Z,1015.11
2017-01-28T12:13:25.717Z,1015.05
2017-01-28T12:14:25.732Z,1015.12
2017-01-28T12:15:25.747Z,1015.09
2017-01-28T12:16:25.761Z,1015.06
2017-01-28T12:17:25.775Z,1015.04
2017-01-28T12:18:25.790Z,1015.04
2017-01-28T12:19:25.805Z,1015.02
2017-01-28T12:20:25.819Z,1015.01
2017-01-28T12:21:25.834Z,1014.99
2017-01-28T12:23:25.863Z,1014.96
2017-01-28T12:24:25.877Z,1015.05
2017-01-28T12:25:25.891Z,1015
2017-01-28T12:26:25.906Z,1014.96
2017-01-28T12:27:25.922Z,1014.98
2017-01-28T12:28:25.934Z,1014.97
2017-01-28T12:29:25.953Z,1014.96
2017-01-28T12:30:25.965Z,1014.94
2017-01-28T12:31:25.978Z,1014.93
2017-01-28T12:32:25.993Z,1014.94
2017-01-28T12:33:26.008Z,1014.9
2017-01-28T12:34:26.023Z,1014.91
2017-01-28T12:35:26.036Z,1014.88
2017-01-28T12:36:26.052Z,1014.89
2017-01-28T12:37:26.067Z,1014.85
2017-01-28T12:39:26.095Z,1014.8
2017-01-28T12:40:26.110Z,1014.78
2017-01-28T12:41:26.125Z,1014.79
2017-01-28T12:42:26.139Z,1014.75
2017-01-28T12:43:26.155Z,1014.79
2017-01-28T12:44:26.168Z,1014.76
2017-01-28T12:45:26.184Z,1014.73
2017-01-28T12:46:26.198Z,1014.74
2017-01-28T12:47:26.213Z,1014.74
2017-01-28T12:48:26.228Z,1014.74